Aviation Digital Data Service (ADDS)

Output produced by METARs form (0002 UTC 01 November 2014)
found at http://www.aviationweather.gov/adds/metars/
 
KMDT 312356Z 00000KT 10SM BKN060 BKN180 BKN250 08/02 A2988 RMK AO2 SLP119 T00780022 10122 20072 50002
KMDT 312256Z 00000KT 10SM BKN060 OVC250 11/01 A2988 RMK AO2 SLP120 T01060006
KMDT 312156Z 00000KT 10SM BKN055 OVC250 11/00 A2987 RMK AO2 SLP117 T01110000
KMDT 312056Z 24003KT 10SM BKN055 BKN250 11/00 A2987 RMK AO2 SLP116 T01110000 56017
KMDT 311956Z 27003KT 10SM BKN060 BKN250 12/02 A2987 RMK AO2 SLP117 T01170017
KMDT 311856Z 25003KT 10SM FEW045 BKN060 BKN250 11/01 A2989 RMK AO2 SLP124 T01110011
KMDT 311756Z 00000KT 10SM FEW040 OVC060 11/02 A2992 RMK AO2 SLP133 BINOVC T01110022 10111 20078 58023
KMDT 311656Z 00000KT 10SM OVC060 10/02 A2994 RMK AO2 SLP141 T01000017
KMDT 311556Z 16004KT 10SM OVC060 10/02 A2998 RMK AO2 SLP154 T01000017
KMDT 311456Z 00000KT 10SM OVC060 09/02 A2999 RMK AO2 SLP157 T00940017 58004
KMDT 311356Z 11005KT 10SM OVC055 08/02 A3000 RMK AO2 SLP161 T00830017
KMDT 311256Z 12007KT 10SM OVC055 08/02 A3001 RMK AO2 SLP165 T00780022
KMDT 311156Z 07003KT 10SM OVC060 08/02 A3000 RMK AO2 SLP161 T00780022 10089 20078 58001
KMDT 311056Z 08003KT 10SM OVC060 08/03 A3001 RMK AO2 SLP163 T00780033
KMDT 310956Z 00000KT 10SM OVC060 08/03 A3001 RMK AO2 SLP163 T00830028
KMDT 310856Z 06003KT 10SM OVC060 08/02 A3001 RMK AO2 SLP162 T00830022 58004
KMDT 310756Z 07003KT 10SM OVC055 08/03 A3001 RMK AO2 SLP163 T00830028
KMDT 310656Z 00000KT 10SM OVC055 08/03 A3002 RMK AO2 SLP167 T00830033
KMDT 310556Z 00000KT 10SM BKN055 08/03 A3002 RMK AO2 SLP167 T00830033 10111 20083 58003
KMDT 310456Z 00000KT 10SM OVC055 09/04 A3003 RMK AO2 SLP169 T00890039 401390056
KMDT 310356Z 00000KT 10SM BKN055 08/04 A3003 RMK AO2 SLP169 T00830039
KMDT 310256Z 00000KT 10SM BKN055 08/05 A3003 RMK AO2 SLP170 T00830050 58001
KMDT 310156Z 00000KT 10SM OVC055 08/04 A3003 RMK AO2 SLP172 BINOVC T00830044
KMDT 310056Z 30003KT 10SM BKN055 09/03 A3003 RMK AO2 SLP170 T00940028
KMDT 302356Z 31003KT 10SM OVC055 09/03 A3003 RMK AO2 SLP170 BINOVC T00940028 10139 20094 50004
KMDT 302256Z 35003KT 10SM BKN055 11/02 A3003 RMK AO2 SLP172 T01060022
KMDT 302156Z 33004KT 10SM BKN055 11/01 A3002 RMK AO2 SLP167 T01110011
KMDT 302056Z 35008KT 10SM FEW045 BKN060 12/02 A3002 RMK AO2 SLP166 T01220017 55003
KMDT 301956Z 31008KT 10SM FEW045 BKN060 14/03 A3001 RMK AO2 SLP164 T01390033
KMDT 301856Z 31009KT 10SM FEW045 BKN060 12/03 A3002 RMK AO2 SLP166 T01220028
KMDT 301756Z 30010KT 10SM SCT045 BKN060 12/04 A3002 RMK AO2 SLP169 T01170039 10139 20056 58010
KMDT 301656Z 29011KT 10SM BKN040 13/04 A3003 RMK AO2 SLP171 T01330044
KMDT 301556Z 35008KT 10SM FEW034 12/03 A3005 RMK AO2 SLP176 T01220033
KMDT 301456Z 33011KT 10SM FEW033 SCT042 SCT050 12/04 A3005 RMK AO2 SLP178 T01170044 50007
KMDT 301356Z 30009KT 10SM CLR 10/04 A3005 RMK AO2 SLP178 T01000044
KMDT 301256Z 30006KT 10SM SCT055 08/04 A3005 RMK AO2 SLP177 T00830044